createdAt,value
2019-05-20T00:00:06.078Z,5.07
2019-05-20T00:02:34.478Z,4.33
2019-05-20T00:05:02.953Z,4.10
2019-05-20T00:07:31.356Z,5.10
2019-05-20T00:09:59.738Z,5.20
2019-05-20T00:12:28.819Z,6.23
2019-05-20T00:14:57.220Z,4.50
2019-05-20T00:17:25.643Z,15.10
2019-05-20T00:19:54.028Z,4.63
2019-05-20T00:22:22.422Z,3.93
2019-05-20T00:24:50.882Z,7.50
2019-05-20T00:27:19.287Z,4.43
2019-05-20T00:29:47.683Z,4.50
2019-05-20T00:32:16.450Z,5.13
2019-05-20T00:34:44.905Z,3.90
2019-05-20T00:37:13.337Z,4.50
2019-05-20T00:39:41.728Z,4.80
2019-05-20T00:42:10.125Z,4.77
2019-05-20T00:44:39.567Z,4.37
2019-05-20T00:47:07.965Z,4.60
2019-05-20T00:49:36.362Z,5.30
2019-05-20T00:52:04.787Z,3.90
2019-05-20T00:54:33.271Z,4.47
2019-05-20T00:57:01.677Z,4.67
2019-05-20T00:59:30.088Z,5.10
2019-05-20T01:01:58.478Z,6.57
2019-05-20T01:04:26.892Z,5.03
2019-05-20T01:06:55.347Z,3.67
2019-05-20T01:09:23.742Z,3.33
2019-05-20T01:11:52.140Z,3.50
2019-05-20T01:14:20.548Z,3.03
2019-05-20T01:16:49.805Z,2.43
2019-05-20T01:19:18.211Z,3.30
2019-05-20T01:21:46.598Z,3.17
2019-05-20T01:24:15.070Z,3.23
2019-05-20T01:26:43.538Z,3.27
2019-05-20T01:29:11.948Z,4.90
2019-05-20T01:31:40.346Z,5.10
2019-05-20T01:34:08.756Z,3.50
2019-05-20T01:36:37.145Z,3.30
2019-05-20T01:39:06.994Z,3.57
2019-05-20T01:41:35.390Z,4.20
2019-05-20T01:44:03.868Z,4.00
2019-05-20T01:46:32.250Z,6.40
2019-05-20T01:49:00.650Z,4.47
2019-05-20T01:51:29.045Z,5.30
2019-05-20T01:53:57.446Z,4.37
2019-05-20T01:56:25.850Z,4.60
2019-05-20T01:58:54.265Z,5.17
2019-05-20T02:01:22.668Z,5.20
2019-05-20T02:03:51.070Z,4.67
2019-05-20T02:06:19.460Z,4.33
2019-05-20T02:08:47.877Z,3.90
2019-05-20T02:11:16.271Z,3.30
2019-05-20T02:13:52.194Z,3.90
2019-05-20T02:16:22.589Z,4.87
2019-05-20T02:18:51.002Z,5.23
2019-05-20T02:21:19.407Z,3.67
2019-05-20T02:23:47.794Z,5.00
2019-05-20T02:26:16.186Z,2.80
2019-05-20T02:28:44.591Z,4.17
2019-05-20T02:31:12.999Z,3.60
2019-05-20T02:33:51.955Z,5.00
2019-05-20T02:36:11.593Z,4.47
2019-05-20T02:38:40.010Z,3.73
2019-05-20T02:41:08.399Z,3.23
2019-05-20T02:43:36.788Z,4.23
2019-05-20T02:46:05.931Z,3.13
2019-05-20T02:48:34.318Z,3.87
2019-05-20T02:51:02.730Z,3.47
2019-05-20T02:53:31.133Z,3.33
2019-05-20T02:55:59.544Z,4.93
2019-05-20T02:58:27.955Z,4.30
2019-05-20T03:00:56.359Z,4.30
2019-05-20T03:03:24.742Z,5.27
2019-05-20T03:05:53.157Z,4.77
2019-05-20T03:08:21.603Z,4.57
2019-05-20T03:10:50.011Z,6.50
2019-05-20T03:13:18.396Z,6.20
2019-05-20T03:15:46.822Z,4.77
2019-05-20T03:18:15.221Z,5.40
2019-05-20T03:20:43.607Z,4.50
2019-05-20T03:23:12.019Z,4.63
2019-05-20T03:25:40.454Z,4.87
2019-05-20T03:28:08.899Z,5.20
2019-05-20T03:30:37.313Z,4.30
2019-05-20T03:33:05.707Z,4.83
2019-05-20T03:35:34.115Z,5.90
2019-05-20T03:38:02.509Z,5.57
2019-05-20T03:40:30.937Z,7.07
2019-05-20T03:42:59.383Z,5.90
2019-05-20T03:45:27.817Z,5.63
2019-05-20T03:47:56.199Z,5.40
2019-05-20T03:50:24.613Z,6.33
2019-05-20T03:52:53.072Z,5.97
2019-05-20T03:55:22.259Z,8.00
2019-05-20T03:57:50.651Z,7.27
2019-05-20T04:00:22.148Z,6.40
2019-05-20T04:02:51.460Z,7.97
2019-05-20T04:05:19.871Z,7.53
2019-05-20T04:07:48.253Z,6.60
2019-05-20T04:10:16.710Z,7.30
2019-05-20T04:12:45.115Z,6.50
2019-05-20T04:15:13.599Z,5.20
2019-05-20T04:17:41.995Z,5.13
2019-05-20T04:20:10.456Z,7.30
2019-05-20T04:22:38.881Z,7.20
2019-05-20T04:25:07.489Z,7.63
2019-05-20T04:27:35.913Z,5.90
2019-05-20T04:30:06.665Z,7.03
2019-05-20T04:32:35.119Z,9.30
2019-05-20T04:35:20.407Z,6.23
2019-05-20T04:37:33.802Z,5.77
2019-05-20T04:40:02.202Z,6.33
2019-05-20T04:42:30.730Z,4.93
2019-05-20T04:44:59.121Z,5.40
2019-05-20T04:47:27.533Z,5.40
2019-05-20T04:49:56.269Z,5.53
2019-05-20T04:52:24.697Z,5.93
2019-05-20T04:54:53.092Z,6.10
2019-05-20T04:57:21.509Z,4.43
2019-05-20T04:59:49.977Z,5.77
2019-05-20T05:02:18.384Z,4.60
2019-05-20T05:04:46.785Z,5.53
2019-05-20T05:07:15.326Z,7.10
2019-05-20T05:09:43.805Z,4.83
2019-05-20T05:12:12.224Z,5.10
2019-05-20T05:14:40.713Z,5.57
2019-05-20T05:17:09.164Z,7.30
2019-05-20T05:19:37.621Z,6.30
2019-05-20T05:22:06.018Z,6.33
2019-05-20T05:24:34.427Z,9.50
2019-05-20T05:27:02.965Z,6.03
2019-05-20T05:29:31.368Z,5.50
2019-05-20T05:31:59.841Z,5.83
2019-05-20T05:34:28.248Z,6.37
2019-05-20T05:36:56.650Z,4.73
2019-05-20T05:39:25.043Z,8.13
2019-05-20T05:41:53.447Z,4.50
2019-05-20T05:44:21.848Z,5.30
2019-05-20T05:46:50.252Z,4.73
2019-05-20T05:49:18.652Z,5.10
2019-05-20T05:51:47.117Z,7.30
2019-05-20T05:54:15.527Z,5.43
2019-05-20T05:56:43.951Z,5.97
2019-05-20T05:59:12.467Z,5.07
2019-05-20T06:01:40.870Z,5.73
2019-05-20T06:04:09.281Z,7.17
2019-05-20T06:06:37.666Z,8.57
2019-05-20T06:09:07.217Z,7.00
2019-05-20T06:11:35.613Z,9.43
2019-05-20T06:14:04.085Z,6.30
2019-05-20T06:16:36.663Z,6.10
2019-05-20T06:19:02.640Z,7.70
2019-05-20T06:21:31.102Z,10.13
2019-05-20T06:23:59.567Z,7.83
2019-05-20T06:26:28.028Z,5.30
2019-05-20T06:28:56.422Z,5.97
2019-05-20T06:31:24.825Z,6.50
2019-05-20T06:33:53.557Z,6.67
2019-05-20T06:36:27.001Z,6.50
2019-05-20T06:38:53.885Z,6.50
2019-05-20T06:41:22.352Z,6.03
2019-05-20T06:43:50.755Z,7.80
2019-05-20T06:46:19.238Z,7.67
2019-05-20T06:48:47.643Z,9.33
2019-05-20T06:51:16.056Z,10.60
2019-05-20T06:53:44.464Z,10.50
2019-05-20T06:56:12.873Z,13.43
2019-05-20T06:58:41.282Z,11.50
2019-05-20T07:01:09.697Z,12.50
2019-05-20T07:03:38.131Z,19.87
2019-05-20T07:06:06.524Z,16.30
2019-05-20T07:08:34.931Z,16.53
2019-05-20T07:11:03.351Z,16.60
2019-05-20T07:13:31.747Z,18.63
2019-05-20T07:16:00.157Z,16.97
2019-05-20T07:18:28.545Z,16.87
2019-05-20T07:20:56.974Z,17.60
2019-05-20T07:23:25.378Z,17.60
2019-05-20T07:25:53.792Z,17.87
2019-05-20T07:28:22.830Z,18.17
2019-05-20T07:30:51.249Z,21.60
2019-05-20T07:33:19.671Z,19.17
2019-05-20T07:35:48.071Z,22.40
2019-05-20T07:38:16.482Z,21.33
2019-05-20T07:40:44.897Z,18.87
2019-05-20T07:43:13.369Z,18.20
2019-05-20T07:45:42.238Z,20.00
2019-05-20T07:48:10.691Z,20.63
2019-05-20T07:50:40.177Z,19.63
2019-05-20T07:53:10.245Z,21.67
2019-05-20T07:55:56.691Z,19.90
2019-05-20T07:58:27.847Z,19.93
2019-05-20T08:00:56.268Z,18.30
2019-05-20T08:03:24.723Z,20.40
2019-05-20T08:05:53.153Z,16.50
2019-05-20T08:08:21.717Z,20.40
2019-05-20T08:10:50.183Z,20.43
2019-05-20T08:13:18.583Z,16.40
2019-05-20T08:15:47.013Z,19.97
2019-05-20T08:18:15.440Z,18.27
2019-05-20T08:20:43.927Z,16.90
2019-05-20T08:23:12.340Z,21.40
2019-05-20T08:25:40.813Z,19.03
2019-05-20T08:28:09.300Z,19.87
2019-05-20T08:30:38.875Z,16.57
2019-05-20T08:33:08.212Z,19.40
2019-05-20T08:35:36.707Z,19.13
2019-05-20T08:38:05.174Z,19.40
2019-05-20T08:40:33.596Z,17.87
2019-05-20T08:43:02.007Z,18.57
2019-05-20T08:45:30.432Z,18.50
2019-05-20T08:47:58.893Z,21.60
2019-05-20T08:50:27.442Z,24.37
2019-05-20T08:52:56.002Z,25.83
2019-05-20T08:55:24.495Z,26.87
2019-05-20T08:57:52.943Z,25.43
2019-05-20T09:00:24.222Z,25.47
2019-05-20T09:02:53.329Z,20.37
2019-05-20T09:05:21.724Z,23.80
2019-05-20T09:08:02.367Z,25.50
2019-05-20T09:10:20.309Z,21.77
2019-05-20T09:12:48.725Z,21.83
2019-05-20T09:15:17.266Z,22.30
2019-05-20T09:17:45.693Z,21.30
2019-05-20T09:20:14.435Z,23.40
2019-05-20T09:22:42.860Z,21.97
2019-05-20T09:25:11.888Z,21.37
2019-05-20T09:27:40.383Z,21.97
2019-05-20T09:30:09.656Z,20.70
2019-05-20T09:32:42.617Z,21.27
2019-05-20T09:35:10.319Z,22.10
2019-05-20T09:37:38.908Z,23.83
2019-05-20T09:40:08.372Z,21.00
2019-05-20T09:42:40.627Z,23.23
2019-05-20T09:45:07.173Z,26.47
2019-05-20T09:47:35.739Z,23.13
2019-05-20T09:50:04.995Z,20.40
2019-05-20T09:52:33.389Z,24.07
2019-05-20T09:55:01.931Z,23.23
2019-05-20T09:57:30.510Z,25.30
2019-05-20T09:59:58.917Z,24.10
2019-05-20T10:02:34.531Z,26.13
2019-05-20T10:04:57.539Z,24.07
2019-05-20T10:07:25.956Z,25.10
2019-05-20T10:09:56.306Z,24.63
2019-05-20T10:12:44.255Z,23.70
2019-05-20T10:14:54.957Z,24.63
2019-05-20T10:17:23.442Z,22.37
2019-05-20T10:19:51.907Z,27.03
2019-05-20T10:22:20.310Z,26.80
2019-05-20T10:24:48.717Z,26.83
2019-05-20T10:27:17.136Z,26.80
2019-05-20T10:29:45.530Z,28.50
2019-05-20T10:32:13.942Z,28.70
2019-05-20T10:34:42.357Z,26.63
2019-05-20T10:37:10.772Z,31.93
2019-05-20T10:39:39.180Z,35.23
2019-05-20T10:42:07.601Z,30.80
2019-05-20T10:44:36.024Z,32.50
2019-05-20T10:47:04.483Z,31.80
2019-05-20T10:49:32.960Z,33.70
2019-05-20T10:52:01.369Z,37.47
2019-05-20T10:54:29.796Z,32.47
2019-05-20T10:56:59.733Z,35.20
2019-05-20T10:59:28.324Z,37.50
2019-05-20T11:01:56.768Z,36.83
2019-05-20T11:04:25.242Z,35.10
2019-05-20T11:06:53.703Z,35.50
2019-05-20T11:09:22.126Z,37.30
2019-05-20T11:11:50.531Z,35.90
2019-05-20T11:14:18.941Z,36.43
2019-05-20T11:16:47.360Z,35.17
2019-05-20T11:19:15.783Z,37.93
2019-05-20T11:21:44.163Z,34.67
2019-05-20T11:24:12.566Z,35.37
2019-05-20T11:26:41.020Z,39.03
2019-05-20T11:29:09.476Z,37.60
2019-05-20T11:31:37.887Z,37.00
2019-05-20T11:34:06.295Z,45.57
2019-05-20T11:36:34.699Z,35.73
2019-05-20T11:39:07.250Z,38.90
2019-05-20T11:44:05.249Z,47.93
2019-05-20T11:46:33.651Z,44.63
2019-05-20T11:49:02.058Z,47.40
2019-05-20T11:51:30.446Z,45.07
2019-05-20T11:53:58.878Z,46.27
2019-05-20T11:56:27.352Z,45.27
2019-05-20T11:58:55.770Z,46.57
2019-05-20T12:01:24.178Z,47.40
2019-05-20T12:03:52.595Z,46.40
2019-05-20T12:06:20.982Z,51.23
2019-05-20T12:08:49.378Z,49.57
2019-05-20T12:11:17.797Z,45.87
2019-05-20T12:13:46.199Z,50.10
2019-05-20T12:16:14.615Z,54.37
2019-05-20T12:18:45.096Z,49.40
2019-05-20T12:21:13.228Z,51.10
2019-05-20T12:23:41.653Z,45.13
2019-05-20T12:26:10.153Z,48.00
2019-05-20T12:28:38.613Z,49.43
2019-05-20T12:31:07.029Z,43.50
2019-05-20T12:33:35.418Z,43.97
2019-05-20T12:36:04.472Z,42.27
2019-05-20T12:38:32.868Z,41.87
2019-05-20T12:41:01.456Z,41.83
2019-05-20T12:43:29.875Z,43.60
2019-05-20T12:45:58.303Z,46.70
2019-05-20T12:48:26.721Z,38.73
2019-05-20T12:50:55.114Z,44.00
2019-05-20T12:53:23.516Z,40.23
2019-05-20T12:55:51.914Z,42.07
2019-05-20T12:58:20.336Z,45.43
2019-05-20T13:00:48.744Z,41.07
2019-05-20T13:03:17.237Z,45.63
2019-05-20T13:05:45.640Z,45.07
2019-05-20T13:08:14.065Z,42.20
2019-05-20T13:10:42.563Z,42.87
2019-05-20T13:13:10.971Z,45.43
2019-05-20T13:15:39.376Z,46.07
2019-05-20T13:18:07.782Z,46.40
2019-05-20T13:20:36.189Z,42.70
2019-05-20T13:23:07.218Z,45.33
2019-05-20T13:25:34.989Z,40.77
2019-05-20T13:28:03.403Z,38.53
2019-05-20T13:30:31.799Z,45.23
2019-05-20T13:33:00.208Z,44.07
2019-05-20T13:35:28.594Z,43.00
2019-05-20T13:37:57.007Z,45.97
2019-05-20T13:40:25.414Z,37.13
2019-05-20T13:42:53.811Z,41.80
2019-05-20T13:45:22.474Z,40.83
2019-05-20T13:47:50.899Z,42.23
2019-05-20T13:50:19.437Z,36.20
2019-05-20T13:52:47.930Z,43.30
2019-05-20T13:55:16.393Z,40.40
2019-05-20T13:57:44.824Z,36.57
2019-05-20T14:00:13.959Z,39.43
2019-05-20T14:02:42.374Z,42.90
2019-05-20T14:05:11.525Z,45.97
2019-05-20T14:07:39.948Z,41.53
2019-05-20T14:10:08.787Z,41.33
2019-05-20T14:12:37.216Z,44.43
2019-05-20T14:15:06.546Z,43.47
2019-05-20T14:17:35.027Z,40.93
2019-05-20T14:20:03.855Z,40.47
2019-05-20T14:22:32.311Z,47.33
2019-05-20T14:25:00.704Z,44.23
2019-05-20T14:27:29.105Z,45.57
2019-05-20T14:29:57.516Z,43.77
2019-05-20T14:32:25.935Z,42.40
2019-05-20T14:34:54.344Z,42.53
2019-05-20T14:37:23.460Z,44.60
2019-05-20T14:39:52.007Z,47.17
2019-05-20T14:42:20.468Z,46.27
2019-05-20T14:44:48.907Z,40.53
2019-05-20T14:47:17.338Z,42.67
2019-05-20T14:49:45.729Z,40.93
2019-05-20T14:52:14.149Z,42.67
2019-05-20T14:54:42.554Z,40.70
2019-05-20T14:57:10.979Z,49.13
2019-05-20T14:59:39.399Z,35.47
2019-05-20T15:02:07.851Z,37.60
2019-05-20T15:04:36.260Z,42.60
2019-05-20T15:07:04.829Z,42.27
2019-05-20T15:09:33.262Z,42.50
2019-05-20T15:12:01.762Z,39.73
2019-05-20T15:14:30.233Z,43.43
2019-05-20T15:16:58.626Z,42.10
2019-05-20T15:19:27.044Z,43.40
2019-05-20T15:21:55.443Z,41.47
2019-05-20T15:24:23.863Z,46.30
2019-05-20T15:26:52.399Z,45.90
2019-05-20T15:29:27.890Z,49.07
2019-05-20T15:31:50.988Z,47.47
2019-05-20T15:34:19.411Z,49.57
2019-05-20T15:36:47.840Z,52.40
2019-05-20T15:39:16.382Z,55.40
2019-05-20T15:41:44.909Z,52.17
2019-05-20T15:44:13.366Z,50.93
2019-05-20T15:46:41.795Z,53.13
2019-05-20T15:49:10.200Z,54.13
2019-05-20T15:51:38.593Z,53.47
2019-05-20T15:54:07.027Z,52.23
2019-05-20T15:56:35.581Z,58.77
2019-05-20T15:59:05.004Z,47.23
2019-05-20T16:01:33.482Z,52.40
2019-05-20T16:04:01.917Z,52.17
2019-05-20T16:06:30.318Z,51.00
2019-05-20T16:08:58.758Z,52.40
2019-05-20T16:11:27.259Z,53.57
2019-05-20T16:13:55.721Z,48.63
2019-05-20T16:16:24.118Z,49.20
2019-05-20T16:18:52.569Z,49.90
2019-05-20T16:21:20.971Z,46.10
2019-05-20T16:23:49.723Z,44.30
2019-05-20T16:26:18.118Z,45.17
2019-05-20T16:28:46.547Z,40.73
2019-05-20T16:31:14.939Z,42.37
2019-05-20T16:33:43.341Z,40.00
2019-05-20T16:36:11.818Z,42.23
2019-05-20T16:38:40.240Z,42.90
2019-05-20T16:41:08.633Z,37.20
2019-05-20T16:43:37.042Z,35.50
2019-05-20T16:46:05.447Z,32.30
2019-05-20T16:48:33.855Z,33.37
2019-05-20T16:51:02.259Z,34.70
2019-05-20T16:53:30.734Z,36.27
2019-05-20T16:55:59.131Z,39.97
2019-05-20T16:58:27.562Z,38.10
2019-05-20T17:00:55.957Z,33.73
2019-05-20T17:03:24.409Z,37.33
2019-05-20T17:05:52.796Z,41.57
2019-05-20T17:08:21.204Z,35.27
2019-05-20T17:10:49.607Z,38.87
2019-05-20T17:13:18.043Z,36.03
2019-05-20T17:15:46.434Z,38.00
2019-05-20T17:18:14.837Z,38.10
2019-05-20T17:20:46.329Z,44.93
2019-05-20T17:23:14.333Z,40.87
2019-05-20T17:25:42.739Z,40.80
2019-05-20T17:28:11.152Z,45.43
2019-05-20T17:30:45.405Z,47.33
2019-05-20T17:33:09.830Z,48.83
2019-05-20T17:35:38.326Z,54.40
2019-05-20T17:38:06.796Z,51.17
2019-05-20T17:40:35.266Z,54.47
2019-05-20T17:43:04.150Z,52.30
2019-05-20T17:45:32.595Z,59.17
2019-05-20T17:48:01.009Z,56.50
2019-05-20T17:50:29.438Z,65.03
2019-05-20T17:52:57.879Z,57.07
2019-05-20T17:55:26.468Z,64.07
2019-05-20T17:57:54.917Z,61.37
2019-05-20T18:00:23.542Z,60.07
2019-05-20T18:02:52.182Z,61.97
2019-05-20T18:05:20.678Z,68.23
2019-05-20T18:07:49.131Z,70.33
2019-05-20T18:10:19.371Z,62.70
2019-05-20T18:12:47.787Z,58.67
2019-05-20T18:15:17.357Z,66.90
2019-05-20T18:17:45.745Z,71.27
2019-05-20T18:20:14.404Z,78.20
2019-05-20T18:22:42.799Z,66.33
2019-05-20T18:25:11.658Z,68.07
2019-05-20T18:27:40.354Z,73.03
2019-05-20T18:30:09.307Z,70.23
2019-05-20T18:32:38.610Z,74.43
2019-05-20T18:35:07.526Z,71.73
2019-05-20T18:37:35.914Z,73.83
2019-05-20T18:40:13.931Z,66.20
2019-05-20T18:42:35.678Z,66.77
2019-05-20T18:45:05.929Z,76.47
2019-05-20T18:47:34.332Z,85.33
2019-05-20T18:50:03.525Z,79.63
2019-05-20T18:52:31.914Z,82.37
2019-05-20T18:55:00.341Z,84.70
2019-05-20T18:57:28.744Z,81.00
2019-05-20T18:59:57.155Z,83.37
2019-05-20T19:02:25.538Z,83.07
2019-05-20T19:04:53.975Z,85.90
2019-05-20T19:07:22.353Z,86.30
2019-05-20T19:09:50.776Z,96.67
2019-05-20T19:12:19.443Z,102.43
2019-05-20T19:14:47.960Z,96.43
2019-05-20T19:17:16.387Z,103.17
2019-05-20T19:19:44.793Z,97.27
2019-05-20T19:22:13.193Z,110.60
2019-05-20T19:24:41.620Z,110.20
2019-05-20T19:27:10.582Z,101.97
2019-05-20T19:29:38.998Z,102.60
2019-05-20T19:32:07.720Z,110.37
2019-05-20T19:34:36.120Z,108.70
2019-05-20T19:37:04.533Z,113.97
2019-05-20T19:39:32.949Z,112.53
2019-05-20T19:42:01.381Z,105.37
2019-05-20T19:44:29.778Z,119.23
2019-05-20T19:46:58.201Z,106.27
2019-05-20T19:49:26.608Z,127.33
2019-05-20T19:51:55.090Z,116.13
2019-05-20T19:54:23.514Z,118.80
2019-05-20T19:56:52.029Z,118.83
2019-05-20T19:59:20.467Z,115.90
2019-05-20T20:01:48.903Z,116.60
2019-05-20T20:04:17.333Z,115.03
2019-05-20T20:06:45.788Z,123.63
2019-05-20T20:09:14.265Z,122.30
2019-05-20T20:11:42.744Z,115.37
2019-05-20T20:14:11.202Z,109.87
2019-05-20T20:16:39.740Z,106.93
2019-05-20T20:19:08.198Z,106.83
2019-05-20T20:21:36.642Z,112.97
2019-05-20T20:24:05.223Z,99.60
2019-05-20T20:26:33.631Z,96.97
2019-05-20T20:29:02.040Z,114.03
2019-05-20T20:31:30.439Z,106.07
2019-05-20T20:33:58.838Z,119.37
2019-05-20T20:36:27.265Z,102.80
2019-05-20T20:38:55.667Z,98.50
2019-05-20T20:41:24.079Z,96.93
2019-05-20T20:43:52.486Z,99.97
2019-05-20T20:46:20.873Z,91.77
2019-05-20T20:48:49.295Z,100.50
2019-05-20T20:51:17.690Z,102.10
2019-05-20T20:53:46.138Z,118.37
2019-05-20T20:56:24.643Z,111.20
2019-05-20T20:58:44.693Z,117.23
2019-05-20T21:01:13.138Z,93.70
2019-05-20T21:03:41.577Z,93.37
2019-05-20T21:06:10.043Z,106.17
2019-05-20T21:08:38.450Z,92.30
2019-05-20T21:11:06.846Z,88.03
2019-05-20T21:13:35.276Z,91.47
2019-05-20T21:16:03.737Z,89.97
2019-05-20T21:18:32.156Z,92.33
2019-05-20T21:21:00.557Z,86.40
2019-05-20T21:23:28.966Z,85.40
2019-05-20T21:25:57.366Z,85.43
2019-05-20T21:28:25.837Z,81.93
2019-05-20T21:30:54.244Z,80.90
2019-05-20T21:33:22.675Z,83.40
2019-05-20T21:35:51.071Z,89.97
2019-05-20T21:38:19.497Z,90.27
2019-05-20T21:40:47.909Z,83.60
2019-05-20T21:43:16.309Z,86.87
2019-05-20T21:45:44.719Z,82.07
2019-05-20T21:48:13.130Z,83.30
2019-05-20T21:50:41.532Z,92.87
2019-05-20T21:53:09.944Z,92.63
2019-05-20T21:55:38.355Z,80.67
2019-05-20T21:58:06.783Z,89.13
2019-05-20T22:00:36.974Z,89.60
2019-05-20T22:03:05.462Z,96.10
2019-05-20T22:05:33.937Z,82.17
2019-05-20T22:08:04.257Z,79.17
2019-05-20T22:10:32.483Z,86.90
2019-05-20T22:13:00.902Z,84.23
2019-05-20T22:15:29.294Z,80.80
2019-05-20T22:17:57.695Z,87.83
2019-05-20T22:20:26.094Z,86.97
2019-05-20T22:23:02.148Z,91.10
2019-05-20T22:25:30.545Z,94.23
2019-05-20T22:27:58.954Z,94.77
2019-05-20T22:30:27.374Z,89.00
2019-05-20T22:32:55.785Z,85.00
2019-05-20T22:35:24.181Z,88.07
2019-05-20T22:37:52.584Z,81.73
2019-05-20T22:40:21.004Z,85.77
2019-05-20T22:42:49.399Z,88.83
2019-05-20T22:45:17.810Z,77.13
2019-05-20T22:47:46.215Z,84.20
2019-05-20T22:50:14.627Z,83.00
2019-05-20T22:52:43.029Z,83.00
2019-05-20T22:55:11.588Z,82.80
2019-05-20T22:57:39.992Z,84.37
2019-05-20T23:00:09.241Z,76.70
2019-05-20T23:02:37.648Z,82.13
2019-05-20T23:05:06.148Z,81.70
2019-05-20T23:07:34.570Z,77.73
2019-05-20T23:10:04.299Z,81.03
2019-05-20T23:12:32.703Z,82.00
2019-05-20T23:15:01.131Z,74.60
2019-05-20T23:17:29.523Z,74.27
2019-05-20T23:19:57.959Z,81.47
2019-05-20T23:22:26.422Z,69.17
2019-05-20T23:24:54.834Z,67.10
2019-05-20T23:27:23.254Z,75.80
2019-05-20T23:29:51.657Z,71.70
2019-05-20T23:32:20.062Z,73.30
2019-05-20T23:34:48.476Z,71.50
2019-05-20T23:37:16.891Z,67.47
2019-05-20T23:39:45.299Z,58.57
2019-05-20T23:42:13.694Z,64.27
2019-05-20T23:44:42.125Z,64.47
2019-05-20T23:47:10.518Z,56.60
2019-05-20T23:49:38.943Z,59.47
2019-05-20T23:52:07.425Z,60.07
2019-05-20T23:54:35.830Z,56.10
2019-05-20T23:57:05.171Z,61.10
2019-05-20T23:59:33.582Z,57.30
